Time;durP1;ratioP1;P1;durP2;ratioP2;P2;SDS_P1;SDS_P2;PMS_P1;PMS_P2;Temp;Humidity;BMP_temperature;BMP_pressure;BME280_temperature;BME280_humidity;BME280_pressure;Samples;Min_cycle;Max_cycle;Signal;HPM_P1;HPM_P2
2021/05/27 00:00:42;;;;;;;2.35;2.15;;;9.60;99.90;;;;;;5014980;28;20034;-73
2021/05/27 00:03:07;;;;;;;5.03;3.08;;;9.70;99.90;;;;;;4992741;28;20113;-73
2021/05/27 00:05:33;;;;;;;2.45;1.88;;;9.60;99.90;;;;;;4992916;28;20125;-73
2021/05/27 00:07:59;;;;;;;2.40;2.20;;;9.50;99.90;;;;;;4992476;28;20033;-73
2021/05/27 00:10:28;;;;;;;5.72;2.13;;;9.60;99.90;;;;;;4991668;28;20038;-74
2021/05/27 00:12:54;;;;;;;2.65;2.45;;;9.60;99.90;;;;;;4974796;28;20380;-73
2021/05/27 00:15:22;;;;;;;2.65;2.10;;;9.70;99.90;;;;;;4991899;28;20022;-73
2021/05/27 00:17:48;;;;;;;2.05;1.95;;;9.50;99.90;;;;;;4992614;28;20023;-74
2021/05/27 00:20:15;;;;;;;3.80;1.92;;;9.30;99.90;;;;;;4991183;28;20029;-74
2021/05/27 00:22:41;;;;;;;1.80;1.70;;;9.30;99.90;;;;;;4992332;28;20037;-74
2021/05/27 00:25:08;;;;;;;3.83;2.10;;;9.20;99.90;;;;;;4994667;28;20030;-74
2021/05/27 00:27:34;;;;;;;3.70;1.90;;;9.00;99.90;;;;;;4995065;28;20030;-74
2021/05/27 00:30:00;;;;;;;3.03;1.77;;;9.10;99.90;;;;;;4995304;28;20040;-74
2021/05/27 00:32:26;;;;;;;1.95;1.85;;;9.10;99.90;;;;;;4996046;28;20034;-74
2021/05/27 00:34:51;;;;;;;3.08;2.00;;;9.10;99.90;;;;;;4996407;28;20097;-73
2021/05/27 00:37:18;;;;;;;5.05;1.90;;;9.10;99.90;;;;;;4996525;28;20110;-74
2021/05/27 00:39:43;;;;;;;1.60;1.50;;;9.20;99.90;;;;;;4995076;28;20026;-74
2021/05/27 00:42:09;;;;;;;2.38;1.40;;;9.00;99.90;;;;;;4995835;28;20030;-74
2021/05/27 00:44:35;;;;;;;2.72;1.80;;;9.00;99.90;;;;;;4995571;28;20038;-74
2021/05/27 00:47:06;;;;;;;2.55;1.52;;;9.10;99.90;;;;;;4995752;28;20453;-74
2021/05/27 00:49:32;;;;;;;1.60;1.50;;;9.10;99.90;;;;;;4995427;28;20101;-74
2021/05/27 00:51:58;;;;;;;3.47;1.60;;;9.00;99.90;;;;;;4978077;28;20126;-74
2021/05/27 00:54:24;;;;;;;3.22;1.58;;;9.10;99.90;;;;;;4995415;28;20400;-73
2021/05/27 00:56:52;;;;;;;1.50;1.40;;;9.10;99.90;;;;;;4995663;28;20022;-74
2021/05/27 00:59:18;;;;;;;1.20;1.10;;;9.10;99.90;;;;;;4995339;28;20050;-74
2021/05/27 01:01:47;;;;;;;2.10;1.85;;;9.10;99.90;;;;;;4994935;28;20042;-74
2021/05/27 01:04:12;;;;;;;1.85;1.25;;;9.00;99.90;;;;;;4995533;28;20026;-73
2021/05/27 01:06:38;;;;;;;2.13;1.40;;;8.90;99.90;;;;;;4977754;28;20033;-74
2021/05/27 01:09:05;;;;;;;1.70;1.60;;;8.90;99.90;;;;;;4995432;28;20026;-74
2021/05/27 01:11:31;;;;;;;1.63;1.48;;;9.00;99.90;;;;;;4994534;28;20026;-73
2021/05/27 01:13:56;;;;;;;2.13;1.48;;;8.90;99.90;;;;;;4978098;28;20023;-74
2021/05/27 01:16:23;;;;;;;2.15;1.75;;;9.00;99.90;;;;;;4995514;28;20415;-74
2021/05/27 01:18:49;;;;;;;1.85;1.70;;;9.10;99.90;;;;;;4995153;28;20026;-74
2021/05/27 01:21:16;;;;;;;2.13;1.75;;;9.10;99.90;;;;;;4994378;28;20061;-73
2021/05/27 01:23:43;;;;;;;3.33;1.67;;;9.10;99.90;;;;;;4977623;28;20030;-73
2021/05/27 01:26:10;;;;;;;1.85;1.75;;;9.10;99.90;;;;;;4995009;28;20033;-73
2021/05/27 01:28:36;;;;;;;2.53;1.65;;;9.10;99.90;;;;;;4977520;28;20037;-73
2021/05/27 01:31:05;;;;;;;1.85;1.60;;;9.10;99.90;;;;;;4993894;28;20030;-73
2021/05/27 01:33:31;;;;;;;3.63;1.80;;;9.20;99.90;;;;;;4995016;28;20030;-73
2021/05/27 01:35:57;;;;;;;2.17;1.58;;;9.20;99.90;;;;;;4994793;28;20029;-73
2021/05/27 01:38:24;;;;;;;2.08;1.90;;;9.10;99.90;;;;;;4994923;28;20121;-73
2021/05/27 01:40:52;;;;;;;1.40;1.30;;;9.10;99.90;;;;;;4994333;28;20018;-73
2021/05/27 01:43:20;;;;;;;1.98;1.85;;;9.10;99.90;;;;;;4994880;28;20030;-73
2021/05/27 01:45:46;;;;;;;1.60;1.27;;;9.00;99.90;;;;;;4994541;28;20030;-74
2021/05/27 01:48:12;;;;;;;2.00;1.80;;;8.90;99.90;;;;;;4977470;28;20030;-74
2021/05/27 01:50:46;;;;;;;2.10;1.70;;;9.10;99.90;;;;;;4994153;28;20365;-74
2021/05/27 01:53:12;;;;;;;3.40;1.63;;;9.00;99.90;;;;;;4976761;28;20085;-73
2021/05/27 01:55:44;;;;;;;3.45;1.40;;;9.00;99.90;;;;;;4977178;28;20050;-73
2021/05/27 01:58:13;;;;;;;7.38;2.00;;;9.00;99.90;;;;;;4994552;28;20026;-73
2021/05/27 02:00:43;;;;;;;1.63;1.52;;;9.10;99.90;;;;;;4993676;28;20037;-73
2021/05/27 02:03:09;;;;;;;3.08;2.08;;;9.10;99.90;;;;;;4994058;28;20165;-73
2021/05/27 02:05:36;;;;;;;2.00;1.90;;;9.30;99.90;;;;;;4994207;28;20041;-73
2021/05/27 02:08:02;;;;;;;2.00;1.90;;;9.20;99.90;;;;;;4994574;28;20033;-74
2021/05/27 02:10:28;;;;;;;3.22;2.25;;;9.30;99.90;;;;;;4993538;28;20019;-73
2021/05/27 02:12:54;;;;;;;2.40;2.15;;;9.30;99.90;;;;;;4994089;28;20030;-73
2021/05/27 02:15:19;;;;;;;2.25;2.05;;;9.20;99.90;;;;;;4992983;28;20044;-73
2021/05/27 02:17:45;;;;;;;2.95;2.30;;;9.20;99.90;;;;;;4994011;28;20508;-73
2021/05/27 02:20:11;;;;;;;3.55;1.90;;;9.10;99.90;;;;;;4993466;28;20365;-73
2021/05/27 02:22:37;;;;;;;3.90;2.03;;;9.10;99.90;;;;;;4994081;28;20077;-74
2021/05/27 02:25:05;;;;;;;3.17;2.03;;;9.10;99.90;;;;;;4993799;28;20459;-73
2021/05/27 02:27:30;;;;;;;5.18;2.30;;;9.10;99.90;;;;;;4992762;28;20038;-73
2021/05/27 02:29:56;;;;;;;3.90;2.13;;;9.20;99.90;;;;;;4993386;28;20109;-74
2021/05/27 02:32:22;;;;;;;2.95;2.15;;;9.20;99.90;;;;;;4993763;28;20362;-74
2021/05/27 02:34:47;;;;;;;2.55;2.40;;;9.20;99.90;;;;;;4993040;28;20034;-73
2021/05/27 02:37:13;;;;;;;7.63;2.60;;;9.20;99.90;;;;;;4993687;28;20029;-73
2021/05/27 02:39:38;;;;;;;3.08;2.47;;;9.30;99.90;;;;;;4993383;28;20022;-73
2021/05/27 02:42:04;;;;;;;3.28;2.65;;;9.30;99.90;;;;;;4993737;28;20026;-73
2021/05/27 02:44:30;;;;;;;3.92;2.17;;;9.30;99.90;;;;;;4993514;28;20030;-74
2021/05/27 02:46:56;;;;;;;6.18;2.80;;;9.20;99.90;;;;;;4993168;28;20093;-74
2021/05/27 02:49:21;;;;;;;4.15;3.22;;;9.20;99.90;;;;;;4993104;28;20019;-73
2021/05/27 02:51:47;;;;;;;4.20;3.13;;;9.30;99.90;;;;;;4993395;28;20428;-73
2021/05/27 02:54:13;;;;;;;2.85;2.65;;;9.30;99.90;;;;;;4993977;28;20488;-73
2021/05/27 02:56:39;;;;;;;5.93;3.15;;;9.20;99.90;;;;;;4993509;28;20113;-73
2021/05/27 02:59:05;;;;;;;3.35;3.05;;;9.30;99.90;;;;;;4992580;28;20053;-73
2021/05/27 03:01:31;;;;;;;3.38;2.90;;;9.30;99.90;;;;;;4992586;28;20026;-73
2021/05/27 03:03:57;;;;;;;4.25;3.00;;;9.20;99.90;;;;;;4993534;28;20037;-74
2021/05/27 03:06:23;;;;;;;4.03;3.10;;;9.20;99.90;;;;;;4993339;28;20057;-74
2021/05/27 03:08:49;;;;;;;3.72;3.28;;;9.30;99.90;;;;;;4975074;28;20022;-74
2021/05/27 03:11:15;;;;;;;6.65;3.60;;;9.20;99.90;;;;;;4992466;28;20117;-74
2021/05/27 03:13:40;;;;;;;4.43;3.13;;;9.20;99.90;;;;;;4992929;28;20041;-73
2021/05/27 03:16:06;;;;;;;3.35;3.05;;;9.10;99.90;;;;;;4993730;28;20485;-73
2021/05/27 03:18:32;;;;;;;5.78;2.95;;;9.10;99.90;;;;;;4993858;28;20030;-74
2021/05/27 03:21:01;;;;;;;2.75;2.55;;;9.10;99.90;;;;;;4993939;28;20030;-73
2021/05/27 03:23:27;;;;;;;6.82;3.20;;;9.00;99.90;;;;;;4993483;28;20030;-73
2021/05/27 03:25:53;;;;;;;4.35;2.78;;;9.00;99.90;;;;;;4993060;28;20088;-74
2021/05/27 03:28:19;;;;;;;3.40;3.05;;;9.00;99.90;;;;;;4993131;28;20400;-75
2021/05/27 03:30:44;;;;;;;2.92;2.72;;;9.00;99.90;;;;;;4992283;28;20105;-74
2021/05/27 03:33:10;;;;;;;3.55;3.05;;;9.00;99.90;;;;;;4996329;28;20467;-74
2021/05/27 03:35:36;;;;;;;2.85;2.65;;;9.00;99.90;;;;;;4978611;28;20098;-74
2021/05/27 03:38:02;;;;;;;2.83;2.63;;;9.00;99.90;;;;;;4996256;28;20112;-73
2021/05/27 03:40:28;;;;;;;6.78;3.03;;;9.00;99.90;;;;;;4992704;28;20080;-73
2021/05/27 03:42:56;;;;;;;4.35;2.42;;;9.00;99.90;;;;;;4993596;28;20026;-75
2021/05/27 03:45:24;;;;;;;3.60;2.38;;;8.90;99.90;;;;;;4996749;28;20046;-74
2021/05/27 03:47:50;;;;;;;3.80;2.30;;;9.00;99.90;;;;;;4996718;28;20484;-74
2021/05/27 03:50:19;;;;;;;2.30;2.13;;;9.00;99.90;;;;;;4993500;28;20038;-73
2021/05/27 03:52:45;;;;;;;2.00;1.90;;;8.90;99.90;;;;;;4992527;28;20036;-73
2021/05/27 03:55:13;;;;;;;4.55;2.17;;;8.80;99.90;;;;;;4992674;28;20121;-73
2021/05/27 03:57:39;;;;;;;2.33;2.13;;;8.90;99.90;;;;;;4992589;28;20018;-73
2021/05/27 04:02:53;;;;;;;2.50;1.80;;;9.00;99.90;;;;;;4993266;28;20052;-74
2021/05/27 04:08:04;;;;;;;2.95;2.00;;;8.90;99.90;;;;;;4992545;28;20147;-74
2021/05/27 04:10:31;;;;;;;2.30;1.88;;;9.00;99.90;;;;;;4974491;28;20023;-73
2021/05/27 04:12:57;;;;;;;6.93;2.00;;;9.00;99.90;;;;;;4991251;28;20022;-72
2021/05/27 04:15:29;;;;;;;2.65;1.58;;;8.80;99.90;;;;;;4992108;28;20034;-73
2021/05/27 04:17:59;;;;;;;2.60;1.48;;;8.80;99.90;;;;;;4992514;28;20101;-72
2021/05/27 04:20:28;;;;;;;3.75;1.90;;;8.90;99.90;;;;;;4991102;28;20399;-74
2021/05/27 04:22:55;;;;;;;4.65;1.45;;;8.90;99.90;;;;;;4992139;28;20026;-74
2021/05/27 04:25:22;;;;;;;1.90;1.80;;;9.00;99.90;;;;;;4992750;28;20392;-74
2021/05/27 04:27:48;;;;;;;3.17;1.90;;;9.00;99.90;;;;;;4998577;28;20034;-73
2021/05/27 04:30:16;;;;;;;2.67;1.88;;;9.10;99.90;;;;;;5001646;28;20037;-75
2021/05/27 04:33:07;;;;;;;1.20;1.20;;;9.20;99.90;;;;;;4992595;28;20028;-73
2021/05/27 04:35:35;;;;;;;2.75;1.45;;;9.10;99.90;;;;;;4991884;28;20141;-74
2021/05/27 04:38:13;;;;;;;2.28;1.00;;;9.10;99.90;;;;;;4992042;28;20022;-74
2021/05/27 04:40:47;;;;;;;1.38;1.27;;;9.00;99.90;;;;;;4991491;28;20027;-74
2021/05/27 04:43:14;;;;;;;1.58;1.40;;;9.20;99.90;;;;;;4992053;28;20030;-74
2021/05/27 04:45:40;;;;;;;1.25;1.20;;;9.20;99.90;;;;;;4991756;28;20109;-73
2021/05/27 04:48:12;;;;;;;2.13;1.60;;;9.30;99.90;;;;;;4991840;28;20066;-73
2021/05/27 04:50:38;;;;;;;;;;;9.30;99.90;;;;;;4974409;28;20081;-74
2021/05/27 04:53:05;;;;;;;4.18;1.65;;;9.50;99.90;;;;;;4991804;28;19914;-72
2021/05/27 04:55:31;;;;;;;2.40;1.55;;;9.30;99.90;;;;;;4991956;28;20540;-73
2021/05/27 04:57:57;;;;;;;1.70;1.20;;;9.30;99.90;;;;;;4974472;28;20388;-72
2021/05/27 05:00:25;;;;;;;1.42;1.33;;;9.30;99.90;;;;;;4992076;28;20065;-74
2021/05/27 05:02:52;;;;;;;2.25;1.55;;;9.40;99.90;;;;;;5002587;28;20034;-76
2021/05/27 05:05:18;;;;;;;2.28;1.30;;;9.40;99.90;;;;;;4976009;28;20030;-74
2021/05/27 05:07:44;;;;;;;1.83;1.30;;;9.60;99.90;;;;;;4992424;28;20032;-74
2021/05/27 05:10:11;;;;;;;1.90;1.20;;;9.60;99.90;;;;;;4993199;28;20061;-73
2021/05/27 05:12:46;;;;;;;2.42;1.20;;;9.30;99.90;;;;;;4999635;28;20088;-76
2021/05/27 05:15:19;;;;;;;3.58;1.20;;;9.40;99.90;;;;;;4977175;28;20389;-74
2021/05/27 05:18:06;;;;;;;2.10;1.42;;;9.60;99.90;;;;;;4995464;28;20031;-74
2021/05/27 05:20:37;;;;;;;1.30;1.20;;;9.70;99.90;;;;;;4994917;28;20440;-73
2021/05/27 05:23:04;;;;;;;1.30;1.20;;;9.70;99.90;;;;;;4977915;28;20475;-73
2021/05/27 05:25:32;;;;;;;1.80;1.02;;;9.70;99.90;;;;;;4995114;28;20114;-75
2021/05/27 05:27:58;;;;;;;2.35;1.73;;;9.90;99.90;;;;;;4995393;28;20093;-74
2021/05/27 05:30:26;;;;;;;2.38;1.27;;;10.00;99.90;;;;;;4976822;28;20030;-74
2021/05/27 05:32:51;;;;;;;1.13;1.02;;;10.20;99.90;;;;;;4995133;28;20033;-74
2021/05/27 05:35:19;;;;;;;1.50;1.35;;;10.30;99.90;;;;;;4996140;28;20026;-74
2021/05/27 05:37:46;;;;;;;2.15;1.30;;;10.60;99.90;;;;;;4995881;28;20101;-73
2021/05/27 05:40:14;;;;;;;1.35;1.20;;;10.50;99.90;;;;;;4976922;28;20029;-74
2021/05/27 05:42:42;;;;;;;2.08;1.00;;;10.00;99.90;;;;;;4995425;28;20078;-76
2021/05/27 05:45:11;;;;;;;1.52;1.42;;;10.20;99.90;;;;;;4994521;28;20093;-74
2021/05/27 05:47:37;;;;;;;1.40;1.10;;;10.30;99.90;;;;;;4995241;28;20476;-75
2021/05/27 05:50:05;;;;;;;2.45;1.40;;;10.20;99.90;;;;;;4976532;28;20030;-76
2021/05/27 05:52:31;;;;;;;7.45;1.35;;;10.20;99.90;;;;;;4977331;28;20057;-75
2021/05/27 05:54:57;;;;;;;4.68;1.50;;;10.30;99.90;;;;;;4990061;28;20026;-76
2021/05/27 05:57:23;;;;;;;1.30;1.20;;;10.30;99.90;;;;;;4982116;28;20033;-76
2021/05/27 05:59:48;;;;;;;4.10;1.33;;;10.40;99.90;;;;;;4994387;28;20035;-75
2021/05/27 06:02:14;;;;;;;1.35;1.25;;;10.40;99.90;;;;;;4995178;28;20041;-75
2021/05/27 06:04:40;;;;;;;4.93;1.40;;;10.60;99.90;;;;;;4995146;28;20649;-77
2021/05/27 06:07:06;;;;;;;2.47;1.50;;;10.40;99.90;;;;;;4977997;28;20043;-76
2021/05/27 06:09:31;;;;;;;2.00;1.20;;;10.60;99.90;;;;;;4983102;28;20027;-75
2021/05/27 06:11:57;;;;;;;1.98;1.30;;;10.70;99.90;;;;;;4984202;28;20070;-77
2021/05/27 06:14:23;;;;;;;1.58;1.05;;;10.80;99.90;;;;;;4984910;28;20023;-77
2021/05/27 06:16:48;;;;;;;2.25;1.30;;;10.80;99.90;;;;;;4984025;28;20019;-74
2021/05/27 06:19:14;;;;;;;1.55;1.25;;;11.00;99.90;;;;;;4984524;28;20122;-76
2021/05/27 06:21:40;;;;;;;7.20;1.35;;;11.00;99.90;;;;;;4965562;28;20484;-76
2021/05/27 06:24:08;;;;;;;2.72;1.77;;;10.90;99.90;;;;;;4983531;28;20034;-75
2021/05/27 06:26:34;;;;;;;3.88;1.38;;;10.80;99.90;;;;;;4983270;28;20026;-75
2021/05/27 06:29:00;;;;;;;2.70;1.52;;;10.70;99.90;;;;;;4984172;28;20050;-76
2021/05/27 06:31:26;;;;;;;5.25;1.75;;;10.80;99.90;;;;;;4983630;28;20437;-75
2021/05/27 06:33:52;;;;;;;4.38;1.75;;;10.70;99.90;;;;;;4966412;28;20072;-76
2021/05/27 06:36:17;;;;;;;4.50;1.90;;;10.70;99.90;;;;;;4965433;28;20066;-75
2021/05/27 06:38:43;;;;;;;3.13;1.45;;;10.70;99.90;;;;;;4984125;28;20058;-74
2021/05/27 06:41:09;;;;;;;6.50;3.08;;;10.70;99.90;;;;;;4984244;28;20098;-73
2021/05/27 06:43:35;;;;;;;5.47;2.00;;;11.50;99.90;;;;;;4968027;28;20022;-74
2021/05/27 06:46:01;;;;;;;2.00;1.77;;;11.90;99.90;;;;;;4968872;28;20401;-73
2021/05/27 06:48:26;;;;;;;4.30;1.58;;;11.60;99.90;;;;;;4987219;28;20038;-73
2021/05/27 06:50:52;;;;;;;3.95;1.75;;;12.10;99.90;;;;;;4965342;28;20394;-75
2021/05/27 06:53:18;;;;;;;6.80;1.73;;;12.00;99.90;;;;;;4982250;28;20027;-75
2021/05/27 06:55:45;;;;;;;4.20;1.80;;;11.60;99.90;;;;;;4987390;28;20455;-75
2021/05/27 06:58:13;;;;;;;3.20;1.40;;;11.50;99.90;;;;;;4988798;28;20030;-73
2021/05/27 07:00:45;;;;;;;5.43;1.80;;;11.60;99.90;;;;;;4988354;28;20026;-74
2021/05/27 07:03:16;;;;;;;4.90;1.80;;;11.50;99.90;;;;;;4970766;28;20068;-72
2021/05/27 07:05:42;;;;;;;3.43;1.67;;;11.80;99.90;;;;;;4985933;28;20109;-71
2021/05/27 07:08:10;;;;;;;4.55;1.65;;;11.80;99.90;;;;;;4986325;28;20540;-73
2021/05/27 07:10:39;;;;;;;5.18;1.67;;;11.50;99.90;;;;;;4969219;28;20166;-74
2021/05/27 07:13:08;;;;;;;1.98;1.25;;;11.80;99.90;;;;;;4986198;28;20540;-73
2021/05/27 07:15:36;;;;;;;1.60;1.10;;;12.20;99.90;;;;;;4985999;28;20076;-74
2021/05/27 07:18:04;;;;;;;2.85;1.40;;;12.10;99.90;;;;;;4987773;28;20480;-75
2021/05/27 07:20:30;;;;;;;1.83;1.58;;;12.10;99.90;;;;;;4981840;28;20027;-75
2021/05/27 07:22:57;;;;;;;3.25;1.48;;;12.00;99.90;;;;;;4981573;28;20488;-73
2021/05/27 07:25:24;;;;;;;3.42;1.70;;;12.40;99.90;;;;;;4981381;28;20030;-74
2021/05/27 07:27:51;;;;;;;3.15;1.20;;;12.60;99.90;;;;;;4983695;28;20026;-74
2021/05/27 07:30:18;;;;;;;2.97;1.02;;;13.00;99.90;;;;;;4981655;28;20471;-74
2021/05/27 07:32:44;;;;;;;2.25;1.20;;;12.90;99.90;;;;;;4982623;28;20026;-74
2021/05/27 07:35:10;;;;;;;4.30;1.13;;;12.90;99.90;;;;;;4982465;28;20106;-74
2021/05/27 07:37:36;;;;;;;1.65;1.10;;;12.70;99.90;;;;;;4972908;28;20785;-74
2021/05/27 07:40:03;;;;;;;4.85;1.70;;;12.70;99.90;;;;;;4981039;28;20552;-73
2021/05/27 07:42:29;;;;;;;1.88;1.30;;;12.20;99.90;;;;;;4981394;28;20089;-74
2021/05/27 07:44:54;;;;;;;1.73;1.13;;;12.40;99.90;;;;;;4980553;28;20039;-74
2021/05/27 07:47:20;;;;;;;6.43;1.80;;;12.50;99.90;;;;;;4980997;28;20512;-73
2021/05/27 07:49:46;;;;;;;3.75;1.73;;;13.20;99.90;;;;;;4967562;28;20027;-74
2021/05/27 07:52:11;;;;;;;5.28;1.58;;;13.20;99.90;;;;;;4988934;28;20481;-75
2021/05/27 07:54:37;;;;;;;3.55;1.30;;;13.30;99.90;;;;;;4987723;28;20030;-72
2021/05/27 07:57:03;;;;;;;3.30;1.05;;;12.90;99.90;;;;;;4981785;28;20037;-74
2021/05/27 07:59:29;;;;;;;1.52;1.17;;;12.80;99.90;;;;;;4981172;28;20026;-75
2021/05/27 08:01:54;;;;;;;2.90;1.05;;;12.70;99.90;;;;;;4980928;28;20093;-73
2021/05/27 08:04:20;;;;;;;1.35;0.70;;;12.80;99.90;;;;;;4980524;28;20035;-72
2021/05/27 08:06:46;;;;;;;2.58;0.88;;;12.80;99.90;;;;;;4981530;28;20034;-74
2021/05/27 08:09:12;;;;;;;2.42;1.20;;;12.70;99.90;;;;;;4980162;28;20037;-75
2021/05/27 08:11:39;;;;;;;0.65;0.65;;;13.00;99.90;;;;;;4962937;28;20041;-73
2021/05/27 08:14:05;;;;;;;2.05;0.80;;;13.10;99.90;;;;;;4981731;28;20019;-74
2021/05/27 08:16:31;;;;;;;2.25;1.15;;;13.10;99.90;;;;;;4963733;28;20493;-73
2021/05/27 08:18:57;;;;;;;1.33;0.68;;;13.60;99.90;;;;;;4980478;28;20134;-73
2021/05/27 08:21:24;;;;;;;1.60;0.90;;;13.60;99.90;;;;;;4980140;28;20401;-74
2021/05/27 08:23:49;;;;;;;2.67;0.90;;;13.30;99.90;;;;;;4964280;28;20041;-75
2021/05/27 08:26:15;;;;;;;1.15;0.80;;;13.50;99.90;;;;;;4981519;28;20035;-73
2021/05/27 08:28:41;;;;;;;1.85;0.90;;;14.50;99.90;;;;;;4981281;28;20074;-75
2021/05/27 08:31:06;;;;;;;2.05;0.77;;;15.10;99.90;;;;;;4979821;28;20102;-74
2021/05/27 08:33:32;;;;;;;1.08;0.73;;;15.30;99.90;;;;;;4981333;28;20027;-75
2021/05/27 08:35:58;;;;;;;0.47;0.43;;;14.90;99.90;;;;;;4964700;28;20071;-75
2021/05/27 08:38:24;;;;;;;1.30;0.70;;;15.20;99.90;;;;;;4981302;28;20500;-74
2021/05/27 08:40:51;;;;;;;1.58;0.93;;;13.90;99.90;;;;;;4964673;28;20030;-75
2021/05/27 08:43:20;;;;;;;1.50;1.05;;;13.70;99.90;;;;;;4981254;28;20049;-74
2021/05/27 08:45:47;;;;;;;2.90;0.50;;;14.40;99.90;;;;;;4983974;28;20116;-75
2021/05/27 08:48:15;;;;;;;2.13;0.60;;;14.60;99.90;;;;;;4985800;28;20033;-75
2021/05/27 08:50:44;;;;;;;2.70;0.85;;;15.00;99.90;;;;;;4984877;28;20045;-75
2021/05/27 08:53:10;;;;;;;2.13;0.70;;;14.60;99.90;;;;;;4971798;28;20031;-74
2021/05/27 08:55:37;;;;;;;1.27;0.50;;;14.60;99.90;;;;;;4986840;28;20116;-75
2021/05/27 08:58:03;;;;;;;0.70;0.60;;;15.20;99.90;;;;;;4988086;28;20049;-74
2021/05/27 09:00:29;;;;;;;1.75;0.60;;;15.50;99.90;;;;;;4967628;28;20157;-75
2021/05/27 09:03:03;;;;;;;4.43;1.05;;;15.80;99.90;;;;;;4985079;28;20038;-74
2021/05/27 09:05:32;;;;;;;1.63;0.70;;;16.50;99.90;;;;;;4985115;28;20036;-75
2021/05/27 09:07:58;;;;;;;2.67;0.70;;;17.90;99.90;;;;;;4969032;28;20409;-74
2021/05/27 09:10:46;;;;;;;2.95;0.60;;;17.30;98.80;;;;;;4988805;28;20031;-74
2021/05/27 09:13:15;;;;;;;3.70;0.88;;;17.10;99.70;;;;;;4984671;28;20026;-74
2021/05/27 09:15:41;;;;;;;2.88;0.60;;;16.70;99.90;;;;;;4983841;28;20049;-73
2021/05/27 09:18:08;;;;;;;1.95;0.88;;;16.40;99.90;;;;;;4968471;28;20509;-75
2021/05/27 09:20:35;;;;;;;2.47;0.60;;;17.20;99.90;;;;;;4983567;28;20035;-74
2021/05/27 09:23:20;;;;;;;3.17;1.00;;;17.80;98.50;;;;;;4984301;28;20030;-73
2021/05/27 09:25:49;;;;;;;1.45;0.77;;;17.20;99.30;;;;;;4985073;28;20042;-75
2021/05/27 09:28:23;;;;;;;5.47;1.13;;;16.10;99.20;;;;;;4984636;28;20038;-73
2021/05/27 09:31:01;;;;;;;1.63;0.68;;;14.90;99.90;;;;;;4966890;28;20054;-73
2021/05/27 09:34:05;;;;;;;3.42;0.70;;;15.30;99.90;;;;;;4984590;28;20034;-72
2021/05/27 09:36:31;;;;;;;1.92;1.02;;;16.10;99.70;;;;;;4984593;28;20030;-73
2021/05/27 09:39:01;;;;;;;1.23;0.70;;;16.90;97.10;;;;;;4984627;28;20548;-73
2021/05/27 09:41:29;;;;;;;1.30;0.70;;;17.50;95.90;;;;;;4982624;28;20027;-74
2021/05/27 09:44:13;;;;;;;0.77;0.52;;;17.60;97.10;;;;;;4967082;28;20026;-72
2021/05/27 09:46:53;;;;;;;4.10;1.30;;;18.00;96.10;;;;;;4975056;28;20030;-72
2021/05/27 09:49:23;;;;;;;2.50;1.40;;;16.90;98.80;;;;;;4977495;28;20034;-72
2021/05/27 09:51:55;;;;;;;5.43;1.75;;;17.00;98.90;;;;;;4970958;28;20037;-73
2021/05/27 09:54:21;;;;;;;2.60;0.98;;;17.10;98.40;;;;;;4994704;28;20058;-72
2021/05/27 09:56:48;;;;;;;0.60;0.60;;;16.90;98.40;;;;;;4990361;28;20050;-72
2021/05/27 09:59:15;;;;;;;1.13;0.80;;;16.50;98.10;;;;;;4983153;28;20018;-73
2021/05/27 10:02:14;;;;;;;1.50;0.75;;;16.90;98.70;;;;;;4956956;28;20389;-73
2021/05/27 10:04:58;;;;;;;3.22;0.80;;;17.10;96.20;;;;;;4991728;28;20029;-74
2021/05/27 10:07:37;;;;;;;1.10;0.88;;;16.40;95.30;;;;;;4978298;28;20037;-74
2021/05/27 10:10:05;;;;;;;1.63;0.70;;;15.60;97.30;;;;;;4993663;28;20034;-75
2021/05/27 10:12:40;;;;;;;1.30;0.60;;;15.90;97.20;;;;;;4976512;28;20041;-74
2021/05/27 10:15:09;;;;;;;3.47;0.70;;;16.70;96.10;;;;;;4993950;28;20018;-73
2021/05/27 10:17:38;;;;;;;3.67;0.60;;;17.80;98.20;;;;;;4993362;28;20425;-74
2021/05/27 10:20:07;;;;;;;1.55;0.90;;;18.30;94.00;;;;;;4976186;28;20776;-75
2021/05/27 10:22:34;;;;;;;1.77;0.80;;;17.80;93.50;;;;;;4993240;28;20059;-72
2021/05/27 10:25:02;;;;;;;0.73;0.73;;;17.20;94.60;;;;;;4976570;28;20046;-75
2021/05/27 10:27:28;;;;;;;1.33;0.65;;;16.70;95.20;;;;;;4994583;28;20019;-76
2021/05/27 10:29:54;;;;;;;0.85;0.73;;;15.80;95.50;;;;;;4993055;28;20032;-77
2021/05/27 10:32:21;;;;;;;2.72;0.60;;;16.20;96.30;;;;;;4996097;28;20322;-77
2021/05/27 10:34:50;;;;;;;2.58;0.80;;;16.10;96.10;;;;;;4994863;28;20026;-76
2021/05/27 10:37:34;;;;;;;2.00;1.00;;;16.70;97.70;;;;;;4994292;28;20034;-76
2021/05/27 10:40:01;;;;;;;1.00;0.80;;;17.10;95.60;;;;;;4994690;28;20145;-77
2021/05/27 10:42:58;;;;;;;1.45;0.60;;;16.90;96.30;;;;;;4995736;28;20596;-74
2021/05/27 10:45:28;;;;;;;5.20;0.90;;;16.80;96.40;;;;;;4976871;28;20465;-76
2021/05/27 10:48:15;;;;;;;4.22;0.75;;;16.80;96.20;;;;;;4975605;28;20030;-76
2021/05/27 10:53:50;;;;;;;2.08;0.80;;;16.10;97.60;;;;;;4994612;28;20042;-76
2021/05/27 10:56:38;;;;;;;2.05;1.00;;;16.30;97.80;;;;;;4942421;28;20046;-77
2021/05/27 10:59:08;;;;;;;1.00;0.77;;;16.40;97.70;;;;;;4974959;28;20014;-77
2021/05/27 11:01:34;;;;;;;1.42;0.98;;;16.50;98.00;;;;;;4975663;28;20019;-76
2021/05/27 11:04:27;;;;;;;2.40;1.23;;;16.80;96.80;;;;;;4959895;28;20398;-74
2021/05/27 11:07:18;;;;;;;1.02;0.82;;;16.90;96.50;;;;;;4978127;28;20520;-76
2021/05/27 11:09:46;;;;;;;2.42;1.15;;;16.60;96.30;;;;;;4975607;28;20038;-77
2021/05/27 11:12:26;;;;;;;2.05;0.90;;;16.50;97.00;;;;;;4973561;28;20040;-76
2021/05/27 11:14:54;;;;;;;3.00;1.13;;;16.60;97.30;;;;;;4974589;28;20038;-75
2021/05/27 11:17:24;;;;;;;1.77;0.65;;;16.50;97.50;;;;;;4974569;28;20034;-77
2021/05/27 11:20:32;;;;;;;3.20;0.93;;;16.90;97.00;;;;;;4991995;28;20026;-75
2021/05/27 11:23:09;;;;;;;2.22;0.50;;;17.00;95.90;;;;;;4993584;28;20069;-76
2021/05/27 11:25:36;;;;;;;2.13;0.70;;;16.60;93.40;;;;;;4976639;28;20034;-77
2021/05/27 11:28:04;;;;;;;0.38;0.38;;;15.90;95.20;;;;;;4995424;28;20034;-74
2021/05/27 11:30:40;;;;;;;1.80;0.50;;;15.80;94.90;;;;;;4977654;28;20088;-75
2021/05/27 11:33:32;;;;;;;1.25;0.55;;;15.70;94.60;;;;;;4976883;28;20113;-76
2021/05/27 11:36:01;;;;;;;1.92;0.90;;;15.70;93.90;;;;;;4976602;28;20022;-76
2021/05/27 11:38:33;;;;;;;4.05;0.80;;;15.50;96.70;;;;;;4994713;28;20033;-74
2021/05/27 11:41:00;;;;;;;;;;;15.40;96.70;;;;;;5002769;28;20049;-75
2021/05/27 11:43:34;;;;;;;2.08;0.82;;;15.60;97.80;;;;;;4997063;28;19977;-74
2021/05/27 11:46:04;;;;;;;2.22;1.17;;;15.70;97.40;;;;;;4995094;28;20029;-76
2021/05/27 11:51:11;;;;;;;1.85;0.60;;;16.40;97.30;;;;;;4992384;28;20033;-76
2021/05/27 11:53:51;;;;;;;3.65;0.95;;;16.90;96.10;;;;;;4992153;28;20063;-76
2021/05/27 11:56:37;;;;;;;1.15;0.50;;;17.40;95.30;;;;;;4992941;28;20022;-75
2021/05/27 11:59:12;;;;;;;1.38;0.40;;;17.20;95.10;;;;;;4992890;28;20097;-75
2021/05/27 12:01:39;;;;;;;0.95;0.55;;;17.00;93.40;;;;;;4994008;28;20404;-75
2021/05/27 12:04:20;;;;;;;1.23;0.70;;;17.20;93.80;;;;;;4994030;28;20082;-76
2021/05/27 12:06:49;;;;;;;8.07;0.70;;;17.30;93.90;;;;;;4992452;28;20100;-76
2021/05/27 12:09:42;;;;;;;1.00;0.80;;;17.50;94.40;;;;;;4992452;28;20066;-74
2021/05/27 12:12:26;;;;;;;2.85;1.23;;;17.60;95.60;;;;;;4993776;28;20026;-77
2021/05/27 12:15:00;;;;;;;1.25;0.80;;;17.90;94.60;;;;;;4975169;28;20026;-76
2021/05/27 12:17:30;;;;;;;1.10;0.65;;;18.10;94.40;;;;;;4994753;28;20045;-75
2021/05/27 12:20:04;;;;;;;1.67;0.70;;;18.50;94.60;;;;;;4990779;28;20023;-75
2021/05/27 12:22:55;;;;;;;1.73;0.75;;;18.90;94.20;;;;;;4993508;28;20417;-75
2021/05/27 12:25:27;;;;;;;0.98;0.88;;;18.40;92.80;;;;;;4992608;28;20366;-75
2021/05/27 12:27:57;;;;;;;1.85;0.70;;;18.40;93.60;;;;;;4993828;28;20050;-77
2021/05/27 12:30:26;;;;;;;1.42;0.60;;;18.90;95.40;;;;;;4991572;28;20497;-76
2021/05/27 12:32:54;;;;;;;2.08;0.70;;;17.60;91.20;;;;;;4993210;28;20065;-76
2021/05/27 12:35:35;;;;;;;1.02;0.68;;;17.50;93.00;;;;;;4975295;28;20358;-75
2021/05/27 12:38:04;;;;;;;0.65;0.57;;;17.90;91.80;;;;;;4980679;28;20027;-74
2021/05/27 12:40:32;;;;;;;2.53;0.70;;;18.70;95.50;;;;;;4973845;28;20046;-77
2021/05/27 12:43:00;;;;;;;0.40;0.38;;;20.10;91.20;;;;;;4974437;28;20125;-74
2021/05/27 12:45:38;;;;;;;2.83;0.68;;;19.50;90.50;;;;;;4976541;28;20117;-76
2021/05/27 12:48:13;;;;;;;1.55;0.68;;;19.80;90.80;;;;;;4961043;28;20026;-79
2021/05/27 12:50:42;;;;;;;0.77;0.50;;;19.50;93.00;;;;;;4980706;28;20022;-77
2021/05/27 12:53:28;;;;;;;2.33;1.00;;;19.40;91.40;;;;;;4992443;28;20026;-74
2021/05/27 12:55:56;;;;;;;2.55;0.70;;;18.50;90.90;;;;;;4992593;28;20437;-77
2021/05/27 12:58:32;;;;;;;0.50;0.50;;;18.00;92.10;;;;;;4993187;28;20098;-77
2021/05/27 13:01:00;;;;;;;2.97;0.75;;;17.70;92.70;;;;;;4983870;28;20026;-75
2021/05/27 13:03:26;;;;;;;1.23;0.60;;;17.30;94.20;;;;;;4974995;28;20030;-75
2021/05/27 13:06:19;;;;;;;1.63;0.90;;;18.20;94.10;;;;;;4959151;28;20121;-76
2021/05/27 13:08:44;;;;;;;1.52;1.00;;;19.60;91.50;;;;;;4955559;28;20030;-74
2021/05/27 13:11:35;;;;;;;1.13;0.98;;;19.50;90.60;;;;;;4995519;28;20054;-75